sensor_id;sensor_type;location;lat;lon;timestamp;temperature;humidity
1546;DHT22;766;51.502;9.752;2022-10-31T00:01:33;15.00;99.90
1546;DHT22;766;51.502;9.752;2022-10-31T00:04:03;15.10;99.90
1546;DHT22;766;51.502;9.752;2022-10-31T00:06:31;15.00;99.90
1546;DHT22;766;51.502;9.752;2022-10-31T00:09:02;15.00;99.90
1546;DHT22;766;51.502;9.752;2022-10-31T00:11:31;15.00;99.90
1546;DHT22;766;51.502;9.752;2022-10-31T00:14:01;14.90;99.90
1546;DHT22;766;51.502;9.752;2022-10-31T00:16:30;14.80;99.90
1546;DHT22;766;51.502;9.752;2022-10-31T00:19:00;14.80;99.90
1546;DHT22;766;51.502;9.752;2022-10-31T00:21:30;14.70;99.90
1546;DHT22;766;51.502;9.752;2022-10-31T00:23:59;14.60;99.90
1546;DHT22;766;51.502;9.752;2022-10-31T00:26:29;14.70;99.90
1546;DHT22;766;51.502;9.752;2022-10-31T00:28:59;14.70;99.90
1546;DHT22;766;51.502;9.752;2022-10-31T00:31:29;14.70;99.90
1546;DHT22;766;51.502;9.752;2022-10-31T00:33:58;14.70;99.90
1546;DHT22;766;51.502;9.752;2022-10-31T00:36:26;14.70;99.90
1546;DHT22;766;51.502;9.752;2022-10-31T00:38:55;14.60;99.90
1546;DHT22;766;51.502;9.752;2022-10-31T00:41:23;14.50;99.90
1546;DHT22;766;51.502;9.752;2022-10-31T00:43:52;14.50;99.90
1546;DHT22;766;51.502;9.752;2022-10-31T00:46:20;14.50;99.90
1546;DHT22;766;51.502;9.752;2022-10-31T00:48:50;14.50;99.90
1546;DHT22;766;51.502;9.752;2022-10-31T00:51:19;14.50;99.90
1546;DHT22;766;51.502;9.752;2022-10-31T00:53:48;14.40;99.90
1546;DHT22;766;51.502;9.752;2022-10-31T00:56:16;14.30;99.90
1546;DHT22;766;51.502;9.752;2022-10-31T00:58:45;14.30;99.90
1546;DHT22;766;51.502;9.752;2022-10-31T01:01:13;14.30;99.90
1546;DHT22;766;51.502;9.752;2022-10-31T01:03:42;14.30;99.90
1546;DHT22;766;51.502;9.752;2022-10-31T01:06:12;14.30;99.90
1546;DHT22;766;51.502;9.752;2022-10-31T01:08:42;14.20;99.90
1546;DHT22;766;51.502;9.752;2022-10-31T01:11:12;14.20;99.90
1546;DHT22;766;51.502;9.752;2022-10-31T01:13:41;14.20;99.90
1546;DHT22;766;51.502;9.752;2022-10-31T01:16:12;14.00;99.90
1546;DHT22;766;51.502;9.752;2022-10-31T01:18:41;14.00;99.90
1546;DHT22;766;51.502;9.752;2022-10-31T01:21:13;14.00;99.90
1546;DHT22;766;51.502;9.752;2022-10-31T01:23:42;14.00;99.90
1546;DHT22;766;51.502;9.752;2022-10-31T01:26:12;13.90;99.90
1546;DHT22;766;51.502;9.752;2022-10-31T01:28:45;14.00;99.90
1546;DHT22;766;51.502;9.752;2022-10-31T01:31:16;13.90;99.90
1546;DHT22;766;51.502;9.752;2022-10-31T01:33:45;13.80;99.90
1546;DHT22;766;51.502;9.752;2022-10-31T01:36:18;13.80;99.90
1546;DHT22;766;51.502;9.752;2022-10-31T01:38:47;13.70;99.90
1546;DHT22;766;51.502;9.752;2022-10-31T01:41:17;13.70;99.90
1546;DHT22;766;51.502;9.752;2022-10-31T01:43:49;13.60;99.90
1546;DHT22;766;51.502;9.752;2022-10-31T01:46:22;13.60;99.90
1546;DHT22;766;51.502;9.752;2022-10-31T01:48:53;13.60;99.90
1546;DHT22;766;51.502;9.752;2022-10-31T01:51:27;13.70;99.90
1546;DHT22;766;51.502;9.752;2022-10-31T01:53:59;13.80;99.90
1546;DHT22;766;51.502;9.752;2022-10-31T01:56:29;13.80;99.90
1546;DHT22;766;51.502;9.752;2022-10-31T01:59:00;13.70;99.90
1546;DHT22;766;51.502;9.752;2022-10-31T02:01:31;13.70;99.90
1546;DHT22;766;51.502;9.752;2022-10-31T02:04:00;13.60;99.90
1546;DHT22;766;51.502;9.752;2022-10-31T02:06:35;13.50;99.90
1546;DHT22;766;51.502;9.752;2022-10-31T02:09:05;13.60;99.90
1546;DHT22;766;51.502;9.752;2022-10-31T02:11:35;13.60;99.90
1546;DHT22;766;51.502;9.752;2022-10-31T02:14:04;13.70;99.90
1546;DHT22;766;51.502;9.752;2022-10-31T02:16:32;13.70;99.90
1546;DHT22;766;51.502;9.752;2022-10-31T02:19:00;13.60;99.90
1546;DHT22;766;51.502;9.752;2022-10-31T02:21:37;13.60;99.90
1546;DHT22;766;51.502;9.752;2022-10-31T02:24:43;13.60;99.90
1546;DHT22;766;51.502;9.752;2022-10-31T02:27:51;13.50;99.90
1546;DHT22;766;51.502;9.752;2022-10-31T02:30:27;13.40;99.90
1546;DHT22;766;51.502;9.752;2022-10-31T02:33:10;13.50;99.90
1546;DHT22;766;51.502;9.752;2022-10-31T02:35:52;13.40;99.90
1546;DHT22;766;51.502;9.752;2022-10-31T02:38:30;13.40;99.90
1546;DHT22;766;51.502;9.752;2022-10-31T02:41:04;13.40;99.90
1546;DHT22;766;51.502;9.752;2022-10-31T02:43:41;13.50;99.90
1546;DHT22;766;51.502;9.752;2022-10-31T02:46:14;13.50;99.90
1546;DHT22;766;51.502;9.752;2022-10-31T02:48:48;13.60;99.90
1546;DHT22;766;51.502;9.752;2022-10-31T02:51:20;13.70;99.90
1546;DHT22;766;51.502;9.752;2022-10-31T02:53:48;13.70;99.90
1546;DHT22;766;51.502;9.752;2022-10-31T02:56:18;13.70;99.90
1546;DHT22;766;51.502;9.752;2022-10-31T02:58:49;13.70;99.90
1546;DHT22;766;51.502;9.752;2022-10-31T03:01:39;13.60;99.90
1546;DHT22;766;51.502;9.752;2022-10-31T03:04:36;13.70;99.90
1546;DHT22;766;51.502;9.752;2022-10-31T03:07:15;13.40;99.90
1546;DHT22;766;51.502;9.752;2022-10-31T03:09:55;13.30;99.90
1546;DHT22;766;51.502;9.752;2022-10-31T03:12:27;13.30;99.90
1546;DHT22;766;51.502;9.752;2022-10-31T03:15:03;13.50;99.90
1546;DHT22;766;51.502;9.752;2022-10-31T03:17:45;13.60;99.90
1546;DHT22;766;51.502;9.752;2022-10-31T03:20:20;13.50;99.90
1546;DHT22;766;51.502;9.752;2022-10-31T03:22:51;13.40;99.90
1546;DHT22;766;51.502;9.752;2022-10-31T03:25:20;13.30;99.90
1546;DHT22;766;51.502;9.752;2022-10-31T03:27:49;13.40;99.90
1546;DHT22;766;51.502;9.752;2022-10-31T03:30:22;13.40;99.90
1546;DHT22;766;51.502;9.752;2022-10-31T03:32:52;13.30;99.90
1546;DHT22;766;51.502;9.752;2022-10-31T03:35:23;13.10;99.90
1546;DHT22;766;51.502;9.752;2022-10-31T03:38:02;13.20;99.90
1546;DHT22;766;51.502;9.752;2022-10-31T03:40:35;13.20;99.90
1546;DHT22;766;51.502;9.752;2022-10-31T03:43:08;13.10;99.90
1546;DHT22;766;51.502;9.752;2022-10-31T03:45:41;13.00;99.90
1546;DHT22;766;51.502;9.752;2022-10-31T03:48:12;13.00;99.90
1546;DHT22;766;51.502;9.752;2022-10-31T03:50:49;12.80;99.90
1546;DHT22;766;51.502;9.752;2022-10-31T03:53:24;12.70;99.90
1546;DHT22;766;51.502;9.752;2022-10-31T03:55:59;12.60;99.90
1546;DHT22;766;51.502;9.752;2022-10-31T03:58:33;12.60;99.90
1546;DHT22;766;51.502;9.752;2022-10-31T04:01:06;12.60;99.90
1546;DHT22;766;51.502;9.752;2022-10-31T04:03:37;12.70;99.90
1546;DHT22;766;51.502;9.752;2022-10-31T04:06:09;12.60;99.90
1546;DHT22;766;51.502;9.752;2022-10-31T04:08:42;12.00;99.90
1546;DHT22;766;51.502;9.752;2022-10-31T04:11:11;11.50;99.90
1546;DHT22;766;51.502;9.752;2022-10-31T04:13:41;11.80;99.90
1546;DHT22;766;51.502;9.752;2022-10-31T04:16:13;11.90;99.90
1546;DHT22;766;51.502;9.752;2022-10-31T04:18:43;11.90;99.90
1546;DHT22;766;51.502;9.752;2022-10-31T04:21:14;11.90;99.90
1546;DHT22;766;51.502;9.752;2022-10-31T04:23:43;11.80;99.90
1546;DHT22;766;51.502;9.752;2022-10-31T04:26:13;12.10;99.90
1546;DHT22;766;51.502;9.752;2022-10-31T04:28:41;12.10;99.90
1546;DHT22;766;51.502;9.752;2022-10-31T04:31:11;12.10;99.90
1546;DHT22;766;51.502;9.752;2022-10-31T04:33:39;12.10;99.90
1546;DHT22;766;51.502;9.752;2022-10-31T04:36:08;12.20;99.90
1546;DHT22;766;51.502;9.752;2022-10-31T04:38:38;12.10;99.90
1546;DHT22;766;51.502;9.752;2022-10-31T04:41:06;12.20;99.90
1546;DHT22;766;51.502;9.752;2022-10-31T04:43:34;11.70;99.90
1546;DHT22;766;51.502;9.752;2022-10-31T04:46:02;11.30;99.90
1546;DHT22;766;51.502;9.752;2022-10-31T04:48:48;11.10;99.90
1546;DHT22;766;51.502;9.752;2022-10-31T04:51:21;11.00;99.90
1546;DHT22;766;51.502;9.752;2022-10-31T04:53:52;11.20;99.90
1546;DHT22;766;51.502;9.752;2022-10-31T04:56:21;11.30;99.90
1546;DHT22;766;51.502;9.752;2022-10-31T04:58:50;11.40;99.90
1546;DHT22;766;51.502;9.752;2022-10-31T05:01:18;11.10;99.90
1546;DHT22;766;51.502;9.752;2022-10-31T05:03:47;11.20;99.90
1546;DHT22;766;51.502;9.752;2022-10-31T05:06:15;11.30;99.90
1546;DHT22;766;51.502;9.752;2022-10-31T05:08:44;11.40;99.90
1546;DHT22;766;51.502;9.752;2022-10-31T05:11:14;11.40;99.90
1546;DHT22;766;51.502;9.752;2022-10-31T05:13:43;11.50;99.90
1546;DHT22;766;51.502;9.752;2022-10-31T05:16:12;11.60;99.90
1546;DHT22;766;51.502;9.752;2022-10-31T05:18:41;11.70;99.90
1546;DHT22;766;51.502;9.752;2022-10-31T05:21:09;11.80;99.90
1546;DHT22;766;51.502;9.752;2022-10-31T05:23:37;11.70;99.90
1546;DHT22;766;51.502;9.752;2022-10-31T05:26:15;11.70;99.90
1546;DHT22;766;51.502;9.752;2022-10-31T05:28:47;11.60;99.90
1546;DHT22;766;51.502;9.752;2022-10-31T05:31:16;11.30;99.90
1546;DHT22;766;51.502;9.752;2022-10-31T05:33:44;11.30;99.90
1546;DHT22;766;51.502;9.752;2022-10-31T05:36:13;11.50;99.90
1546;DHT22;766;51.502;9.752;2022-10-31T05:38:44;11.30;99.90
1546;DHT22;766;51.502;9.752;2022-10-31T05:41:14;11.20;99.90
1546;DHT22;766;51.502;9.752;2022-10-31T05:43:44;11.20;99.90
1546;DHT22;766;51.502;9.752;2022-10-31T05:46:13;11.30;99.90
1546;DHT22;766;51.502;9.752;2022-10-31T05:48:41;11.10;99.90
1546;DHT22;766;51.502;9.752;2022-10-31T05:51:09;11.00;99.90
1546;DHT22;766;51.502;9.752;2022-10-31T05:53:38;10.60;99.90
1546;DHT22;766;51.502;9.752;2022-10-31T05:56:06;10.50;99.90
1546;DHT22;766;51.502;9.752;2022-10-31T05:58:36;10.70;99.90
1546;DHT22;766;51.502;9.752;2022-10-31T06:01:05;10.90;99.90
1546;DHT22;766;51.502;9.752;2022-10-31T06:03:34;10.80;99.90
1546;DHT22;766;51.502;9.752;2022-10-31T06:06:03;10.60;99.90
1546;DHT22;766;51.502;9.752;2022-10-31T06:08:32;10.60;99.90
1546;DHT22;766;51.502;9.752;2022-10-31T06:11:00;10.60;99.90
1546;DHT22;766;51.502;9.752;2022-10-31T06:13:29;10.50;99.90
1546;DHT22;766;51.502;9.752;2022-10-31T06:15:59;10.70;99.90
1546;DHT22;766;51.502;9.752;2022-10-31T06:18:29;10.70;99.90
1546;DHT22;766;51.502;9.752;2022-10-31T06:20:57;10.80;99.90
1546;DHT22;766;51.502;9.752;2022-10-31T06:23:26;10.70;99.90
1546;DHT22;766;51.502;9.752;2022-10-31T06:25:55;10.70;99.90
1546;DHT22;766;51.502;9.752;2022-10-31T06:28:24;10.80;99.90
1546;DHT22;766;51.502;9.752;2022-10-31T06:30:53;10.90;99.90
1546;DHT22;766;51.502;9.752;2022-10-31T06:33:23;10.90;99.90
1546;DHT22;766;51.502;9.752;2022-10-31T06:35:52;10.90;99.90
1546;DHT22;766;51.502;9.752;2022-10-31T06:38:21;10.50;99.90
1546;DHT22;766;51.502;9.752;2022-10-31T06:40:51;10.30;99.90
1546;DHT22;766;51.502;9.752;2022-10-31T06:43:20;10.50;99.90
1546;DHT22;766;51.502;9.752;2022-10-31T06:45:50;10.60;99.90
1546;DHT22;766;51.502;9.752;2022-10-31T06:48:19;10.70;99.90
1546;DHT22;766;51.502;9.752;2022-10-31T06:50:49;10.50;99.90
1546;DHT22;766;51.502;9.752;2022-10-31T06:53:24;10.70;99.90
1546;DHT22;766;51.502;9.752;2022-10-31T06:55:52;10.60;99.90
1546;DHT22;766;51.502;9.752;2022-10-31T06:58:24;10.70;99.90
1546;DHT22;766;51.502;9.752;2022-10-31T07:00:52;10.80;99.90
1546;DHT22;766;51.502;9.752;2022-10-31T07:03:21;10.90;99.90
1546;DHT22;766;51.502;9.752;2022-10-31T07:05:50;11.10;99.90
1546;DHT22;766;51.502;9.752;2022-10-31T07:08:19;11.20;99.90
1546;DHT22;766;51.502;9.752;2022-10-31T07:10:51;11.40;99.90
1546;DHT22;766;51.502;9.752;2022-10-31T07:13:22;11.30;99.90
1546;DHT22;766;51.502;9.752;2022-10-31T07:15:53;11.50;99.90
1546;DHT22;766;51.502;9.752;2022-10-31T07:18:21;11.70;99.90
1546;DHT22;766;51.502;9.752;2022-10-31T07:20:52;11.60;99.90
1546;DHT22;766;51.502;9.752;2022-10-31T07:23:21;11.60;99.90
1546;DHT22;766;51.502;9.752;2022-10-31T07:25:54;11.60;99.90
1546;DHT22;766;51.502;9.752;2022-10-31T07:28:23;11.80;99.90
1546;DHT22;766;51.502;9.752;2022-10-31T07:30:53;11.90;99.90
1546;DHT22;766;51.502;9.752;2022-10-31T07:33:22;12.00;99.90
1546;DHT22;766;51.502;9.752;2022-10-31T07:35:54;11.90;99.90
1546;DHT22;766;51.502;9.752;2022-10-31T07:38:22;12.00;99.90
1546;DHT22;766;51.502;9.752;2022-10-31T07:40:51;12.30;99.90
1546;DHT22;766;51.502;9.752;2022-10-31T07:43:20;12.50;99.90
1546;DHT22;766;51.502;9.752;2022-10-31T07:45:51;12.70;99.90
1546;DHT22;766;51.502;9.752;2022-10-31T07:48:20;12.90;99.90
1546;DHT22;766;51.502;9.752;2022-10-31T07:50:49;13.10;99.90
1546;DHT22;766;51.502;9.752;2022-10-31T07:53:20;13.20;99.90
1546;DHT22;766;51.502;9.752;2022-10-31T07:55:48;13.30;99.90
1546;DHT22;766;51.502;9.752;2022-10-31T07:58:17;13.20;99.90
1546;DHT22;766;51.502;9.752;2022-10-31T08:00:47;13.30;99.90
1546;DHT22;766;51.502;9.752;2022-10-31T08:03:17;13.50;99.90
1546;DHT22;766;51.502;9.752;2022-10-31T08:05:46;13.80;99.90
1546;DHT22;766;51.502;9.752;2022-10-31T08:08:15;14.00;99.90
1546;DHT22;766;51.502;9.752;2022-10-31T08:10:46;14.00;99.90
1546;DHT22;766;51.502;9.752;2022-10-31T08:13:15;14.10;99.90
1546;DHT22;766;51.502;9.752;2022-10-31T08:15:43;14.20;99.90
1546;DHT22;766;51.502;9.752;2022-10-31T08:18:17;14.30;99.90
1546;DHT22;766;51.502;9.752;2022-10-31T08:20:45;14.20;99.90
1546;DHT22;766;51.502;9.752;2022-10-31T08:23:16;14.10;99.90
1546;DHT22;766;51.502;9.752;2022-10-31T08:25:48;14.20;99.90
1546;DHT22;766;51.502;9.752;2022-10-31T08:28:16;14.00;99.90
1546;DHT22;766;51.502;9.752;2022-10-31T08:30:44;14.30;99.90
1546;DHT22;766;51.502;9.752;2022-10-31T08:33:17;14.60;99.90
1546;DHT22;766;51.502;9.752;2022-10-31T08:35:46;14.80;99.90
1546;DHT22;766;51.502;9.752;2022-10-31T08:38:15;14.90;99.90
1546;DHT22;766;51.502;9.752;2022-10-31T08:40:47;15.10;99.90
1546;DHT22;766;51.502;9.752;2022-10-31T08:43:17;15.20;99.90
1546;DHT22;766;51.502;9.752;2022-10-31T08:45:48;15.10;99.90
1546;DHT22;766;51.502;9.752;2022-10-31T08:48:17;14.80;99.90
1546;DHT22;766;51.502;9.752;2022-10-31T08:50:46;14.90;99.90
1546;DHT22;766;51.502;9.752;2022-10-31T08:53:15;15.30;99.90
1546;DHT22;766;51.502;9.752;2022-10-31T08:55:45;15.70;99.90
1546;DHT22;766;51.502;9.752;2022-10-31T08:58:15;15.80;99.90
1546;DHT22;766;51.502;9.752;2022-10-31T09:00:46;15.70;99.90
1546;DHT22;766;51.502;9.752;2022-10-31T09:03:16;15.90;99.90
1546;DHT22;766;51.502;9.752;2022-10-31T09:05:45;16.00;99.90
1546;DHT22;766;51.502;9.752;2022-10-31T09:08:14;16.10;99.90
1546;DHT22;766;51.502;9.752;2022-10-31T09:10:43;16.20;99.90
1546;DHT22;766;51.502;9.752;2022-10-31T09:13:13;16.10;99.90
1546;DHT22;766;51.502;9.752;2022-10-31T09:15:45;16.20;99.90
1546;DHT22;766;51.502;9.752;2022-10-31T09:18:17;16.00;99.90
1546;DHT22;766;51.502;9.752;2022-10-31T09:20:47;15.90;99.90
1546;DHT22;766;51.502;9.752;2022-10-31T09:23:17;16.00;99.90
1546;DHT22;766;51.502;9.752;2022-10-31T09:25:46;16.00;99.90
1546;DHT22;766;51.502;9.752;2022-10-31T09:28:18;16.00;99.90
1546;DHT22;766;51.502;9.752;2022-10-31T09:30:49;16.00;99.90
1546;DHT22;766;51.502;9.752;2022-10-31T09:33:18;15.90;99.90
1546;DHT22;766;51.502;9.752;2022-10-31T09:35:48;16.10;99.90
1546;DHT22;766;51.502;9.752;2022-10-31T09:38:18;16.40;99.90
1546;DHT22;766;51.502;9.752;2022-10-31T09:40:51;16.50;99.90
1546;DHT22;766;51.502;9.752;2022-10-31T09:43:27;16.60;99.90
1546;DHT22;766;51.502;9.752;2022-10-31T09:46:07;16.60;99.90
1546;DHT22;766;51.502;9.752;2022-10-31T09:48:48;16.70;99.90
1546;DHT22;766;51.502;9.752;2022-10-31T09:51:22;16.80;99.90
1546;DHT22;766;51.502;9.752;2022-10-31T09:53:55;17.00;99.90
1546;DHT22;766;51.502;9.752;2022-10-31T09:56:28;17.10;99.90
1546;DHT22;766;51.502;9.752;2022-10-31T09:59:00;17.00;99.90
1546;DHT22;766;51.502;9.752;2022-10-31T10:01:40;17.10;99.90
1546;DHT22;766;51.502;9.752;2022-10-31T10:04:25;17.00;99.90
1546;DHT22;766;51.502;9.752;2022-10-31T10:06:56;16.90;99.90
1546;DHT22;766;51.502;9.752;2022-10-31T10:09:26;17.10;99.90
1546;DHT22;766;51.502;9.752;2022-10-31T10:12:03;17.30;99.90
1546;DHT22;766;51.502;9.752;2022-10-31T10:14:52;17.10;99.90
1546;DHT22;766;51.502;9.752;2022-10-31T10:17:35;17.60;99.90
1546;DHT22;766;51.502;9.752;2022-10-31T10:20:24;17.70;99.90
1546;DHT22;766;51.502;9.752;2022-10-31T10:23:05;18.20;99.90
1546;DHT22;766;51.502;9.752;2022-10-31T10:25:38;18.10;99.90
1546;DHT22;766;51.502;9.752;2022-10-31T10:28:16;18.30;99.90
1546;DHT22;766;51.502;9.752;2022-10-31T10:30:49;18.30;99.90
1546;DHT22;766;51.502;9.752;2022-10-31T10:33:24;18.60;99.90
1546;DHT22;766;51.502;9.752;2022-10-31T10:35:57;18.60;99.90
1546;DHT22;766;51.502;9.752;2022-10-31T10:38:30;18.50;99.90
1546;DHT22;766;51.502;9.752;2022-10-31T10:41:01;18.70;99.90
1546;DHT22;766;51.502;9.752;2022-10-31T10:43:33;18.80;99.90
1546;DHT22;766;51.502;9.752;2022-10-31T10:46:16;19.10;99.90
1546;DHT22;766;51.502;9.752;2022-10-31T10:49:12;18.40;99.90
1546;DHT22;766;51.502;9.752;2022-10-31T10:51:45;18.50;99.90
1546;DHT22;766;51.502;9.752;2022-10-31T10:54:46;18.90;99.90
1546;DHT22;766;51.502;9.752;2022-10-31T10:57:25;19.10;99.90
1546;DHT22;766;51.502;9.752;2022-10-31T10:59:56;19.30;99.90
1546;DHT22;766;51.502;9.752;2022-10-31T11:02:26;19.00;99.90
1546;DHT22;766;51.502;9.752;2022-10-31T11:04:57;18.90;99.90
1546;DHT22;766;51.502;9.752;2022-10-31T11:07:37;18.80;99.90
1546;DHT22;766;51.502;9.752;2022-10-31T11:10:12;18.60;99.90
1546;DHT22;766;51.502;9.752;2022-10-31T11:12:43;18.70;99.90
1546;DHT22;766;51.502;9.752;2022-10-31T11:15:20;19.00;99.90
1546;DHT22;766;51.502;9.752;2022-10-31T11:17:51;19.10;99.90
1546;DHT22;766;51.502;9.752;2022-10-31T11:20:30;18.90;99.90
1546;DHT22;766;51.502;9.752;2022-10-31T11:23:17;18.70;99.90
1546;DHT22;766;51.502;9.752;2022-10-31T11:25:54;18.80;99.90
1546;DHT22;766;51.502;9.752;2022-10-31T11:28:23;18.80;99.90
1546;DHT22;766;51.502;9.752;2022-10-31T11:30:54;19.00;99.90
1546;DHT22;766;51.502;9.752;2022-10-31T11:33:29;19.10;99.90
1546;DHT22;766;51.502;9.752;2022-10-31T11:36:01;18.80;99.90
1546;DHT22;766;51.502;9.752;2022-10-31T11:38:34;18.90;99.90
1546;DHT22;766;51.502;9.752;2022-10-31T11:41:11;18.90;99.90
1546;DHT22;766;51.502;9.752;2022-10-31T11:43:46;18.90;99.90
1546;DHT22;766;51.502;9.752;2022-10-31T11:46:21;19.20;99.90
1546;DHT22;766;51.502;9.752;2022-10-31T11:48:52;19.30;99.90
1546;DHT22;766;51.502;9.752;2022-10-31T11:51:25;18.70;99.90
1546;DHT22;766;51.502;9.752;2022-10-31T11:53:56;18.60;99.90
1546;DHT22;766;51.502;9.752;2022-10-31T11:56:38;19.20;99.90
1546;DHT22;766;51.502;9.752;2022-10-31T11:59:18;19.20;99.90
1546;DHT22;766;51.502;9.752;2022-10-31T12:01:48;19.10;99.90
1546;DHT22;766;51.502;9.752;2022-10-31T12:04:17;19.10;99.90
1546;DHT22;766;51.502;9.752;2022-10-31T12:06:49;19.10;99.90
1546;DHT22;766;51.502;9.752;2022-10-31T12:09:21;19.10;99.90
1546;DHT22;766;51.502;9.752;2022-10-31T12:12:10;19.20;99.90
1546;DHT22;766;51.502;9.752;2022-10-31T12:14:51;19.20;99.90
1546;DHT22;766;51.502;9.752;2022-10-31T12:17:25;19.10;99.90
1546;DHT22;766;51.502;9.752;2022-10-31T12:20:05;19.00;99.90
1546;DHT22;766;51.502;9.752;2022-10-31T12:22:43;19.10;99.90
1546;DHT22;766;51.502;9.752;2022-10-31T12:25:25;19.00;99.90
1546;DHT22;766;51.502;9.752;2022-10-31T12:28:08;19.30;99.90
1546;DHT22;766;51.502;9.752;2022-10-31T12:30:50;19.00;99.90
1546;DHT22;766;51.502;9.752;2022-10-31T12:33:47;18.90;99.90
1546;DHT22;766;51.502;9.752;2022-10-31T12:36:29;18.70;99.90
1546;DHT22;766;51.502;9.752;2022-10-31T12:39:12;18.80;99.90
1546;DHT22;766;51.502;9.752;2022-10-31T12:41:47;18.80;99.90
1546;DHT22;766;51.502;9.752;2022-10-31T12:44:37;18.70;99.90
1546;DHT22;766;51.502;9.752;2022-10-31T12:47:27;18.80;99.90
1546;DHT22;766;51.502;9.752;2022-10-31T12:50:11;18.70;99.90
1546;DHT22;766;51.502;9.752;2022-10-31T12:52:51;18.20;99.90
1546;DHT22;766;51.502;9.752;2022-10-31T12:55:41;18.10;99.90
1546;DHT22;766;51.502;9.752;2022-10-31T12:58:19;18.10;99.90
1546;DHT22;766;51.502;9.752;2022-10-31T13:00:51;18.10;99.90
1546;DHT22;766;51.502;9.752;2022-10-31T13:03:28;18.00;99.90
1546;DHT22;766;51.502;9.752;2022-10-31T13:06:02;18.30;99.90
1546;DHT22;766;51.502;9.752;2022-10-31T13:08:36;18.50;99.90
1546;DHT22;766;51.502;9.752;2022-10-31T13:11:12;18.30;99.90
1546;DHT22;766;51.502;9.752;2022-10-31T13:13:45;18.20;99.90
1546;DHT22;766;51.502;9.752;2022-10-31T13:16:19;18.00;99.90
1546;DHT22;766;51.502;9.752;2022-10-31T13:18:53;18.00;99.90
1546;DHT22;766;51.502;9.752;2022-10-31T13:21:25;18.00;99.90
1546;DHT22;766;51.502;9.752;2022-10-31T13:23:59;18.00;99.90
1546;DHT22;766;51.502;9.752;2022-10-31T13:26:36;18.20;99.90
1546;DHT22;766;51.502;9.752;2022-10-31T13:29:14;18.20;99.90
1546;DHT22;766;51.502;9.752;2022-10-31T13:31:44;17.90;99.90
1546;DHT22;766;51.502;9.752;2022-10-31T13:34:22;17.70;99.90
1546;DHT22;766;51.502;9.752;2022-10-31T13:36:58;17.80;99.90
1546;DHT22;766;51.502;9.752;2022-10-31T13:39:46;17.60;99.90
1546;DHT22;766;51.502;9.752;2022-10-31T13:42:24;17.60;99.90
1546;DHT22;766;51.502;9.752;2022-10-31T13:45:11;17.50;99.90
1546;DHT22;766;51.502;9.752;2022-10-31T13:47:41;17.40;99.90
1546;DHT22;766;51.502;9.752;2022-10-31T13:50:21;17.40;99.90
1546;DHT22;766;51.502;9.752;2022-10-31T13:52:50;17.40;99.90
1546;DHT22;766;51.502;9.752;2022-10-31T13:55:47;17.40;99.90
1546;DHT22;766;51.502;9.752;2022-10-31T13:58:25;17.30;99.90
1546;DHT22;766;51.502;9.752;2022-10-31T14:01:05;17.30;99.90
1546;DHT22;766;51.502;9.752;2022-10-31T14:03:42;17.30;99.90
1546;DHT22;766;51.502;9.752;2022-10-31T14:06:42;17.40;99.90
1546;DHT22;766;51.502;9.752;2022-10-31T14:09:24;17.30;99.90
1546;DHT22;766;51.502;9.752;2022-10-31T14:11:53;17.10;99.90
1546;DHT22;766;51.502;9.752;2022-10-31T14:14:32;17.10;99.90
1546;DHT22;766;51.502;9.752;2022-10-31T14:17:02;17.00;99.90
1546;DHT22;766;51.502;9.752;2022-10-31T14:19:31;17.00;99.90
1546;DHT22;766;51.502;9.752;2022-10-31T14:21:59;16.80;99.90
1546;DHT22;766;51.502;9.752;2022-10-31T14:24:36;16.80;99.90
1546;DHT22;766;51.502;9.752;2022-10-31T14:27:33;16.90;99.90
1546;DHT22;766;51.502;9.752;2022-10-31T14:30:25;16.80;99.90
1546;DHT22;766;51.502;9.752;2022-10-31T14:32:58;16.80;99.90
1546;DHT22;766;51.502;9.752;2022-10-31T14:35:43;16.80;99.90
1546;DHT22;766;51.502;9.752;2022-10-31T14:44:48;16.80;99.90
1546;DHT22;766;51.502;9.752;2022-10-31T14:47:33;16.90;99.90
1546;DHT22;766;51.502;9.752;2022-10-31T14:50:16;16.90;99.90
1546;DHT22;766;51.502;9.752;2022-10-31T14:52:50;17.00;99.90
1546;DHT22;766;51.502;9.752;2022-10-31T14:55:23;16.90;99.90
1546;DHT22;766;51.502;9.752;2022-10-31T14:57:55;16.80;99.90
1546;DHT22;766;51.502;9.752;2022-10-31T15:00:26;16.60;99.90
1546;DHT22;766;51.502;9.752;2022-10-31T15:03:07;16.60;99.90
1546;DHT22;766;51.502;9.752;2022-10-31T15:05:42;16.60;99.90
1546;DHT22;766;51.502;9.752;2022-10-31T15:08:28;16.50;99.90
1546;DHT22;766;51.502;9.752;2022-10-31T15:10:57;16.50;99.90
1546;DHT22;766;51.502;9.752;2022-10-31T15:13:26;16.40;99.90
1546;DHT22;766;51.502;9.752;2022-10-31T15:15:55;16.50;99.90
1546;DHT22;766;51.502;9.752;2022-10-31T15:18:27;16.40;99.90
1546;DHT22;766;51.502;9.752;2022-10-31T15:20:57;16.40;99.90
1546;DHT22;766;51.502;9.752;2022-10-31T15:23:28;16.50;99.90
1546;DHT22;766;51.502;9.752;2022-10-31T15:26:01;16.30;99.90
1546;DHT22;766;51.502;9.752;2022-10-31T15:28:31;16.30;99.90
1546;DHT22;766;51.502;9.752;2022-10-31T15:31:01;16.20;99.90
1546;DHT22;766;51.502;9.752;2022-10-31T15:33:40;16.20;99.90
1546;DHT22;766;51.502;9.752;2022-10-31T15:36:19;16.20;99.90
1546;DHT22;766;51.502;9.752;2022-10-31T15:38:57;16.20;99.90
1546;DHT22;766;51.502;9.752;2022-10-31T15:41:30;16.10;99.90
1546;DHT22;766;51.502;9.752;2022-10-31T15:44:03;16.10;99.90
1546;DHT22;766;51.502;9.752;2022-10-31T15:46:33;16.00;99.90
1546;DHT22;766;51.502;9.752;2022-10-31T15:49:03;15.90;99.90
1546;DHT22;766;51.502;9.752;2022-10-31T15:51:34;15.90;99.90
1546;DHT22;766;51.502;9.752;2022-10-31T15:54:04;15.80;99.90
1546;DHT22;766;51.502;9.752;2022-10-31T15:56:33;15.80;99.90
1546;DHT22;766;51.502;9.752;2022-10-31T15:59:02;15.70;99.90
1546;DHT22;766;51.502;9.752;2022-10-31T16:01:32;15.60;99.90
1546;DHT22;766;51.502;9.752;2022-10-31T16:04:05;15.50;99.90
1546;DHT22;766;51.502;9.752;2022-10-31T16:06:58;15.60;99.90
1546;DHT22;766;51.502;9.752;2022-10-31T16:09:28;15.60;99.90
1546;DHT22;766;51.502;9.752;2022-10-31T16:11:58;15.60;99.90
1546;DHT22;766;51.502;9.752;2022-10-31T16:14:30;15.40;99.90
1546;DHT22;766;51.502;9.752;2022-10-31T16:17:01;15.40;99.90
1546;DHT22;766;51.502;9.752;2022-10-31T16:19:33;15.40;99.90
1546;DHT22;766;51.502;9.752;2022-10-31T16:22:05;15.30;99.90
1546;DHT22;766;51.502;9.752;2022-10-31T16:24:47;15.30;99.90
1546;DHT22;766;51.502;9.752;2022-10-31T16:27:19;15.20;99.90
1546;DHT22;766;51.502;9.752;2022-10-31T16:29:51;15.30;99.90
1546;DHT22;766;51.502;9.752;2022-10-31T16:32:27;15.30;99.90
1546;DHT22;766;51.502;9.752;2022-10-31T16:35:18;15.30;99.90
1546;DHT22;766;51.502;9.752;2022-10-31T16:37:47;15.30;99.90
1546;DHT22;766;51.502;9.752;2022-10-31T16:40:17;15.30;99.90
1546;DHT22;766;51.502;9.752;2022-10-31T16:42:48;15.50;99.90
1546;DHT22;766;51.502;9.752;2022-10-31T16:45:19;15.50;99.90
1546;DHT22;766;51.502;9.752;2022-10-31T16:47:54;15.50;99.90
1546;DHT22;766;51.502;9.752;2022-10-31T16:50:31;15.70;99.90
1546;DHT22;766;51.502;9.752;2022-10-31T16:52:59;15.70;99.90
1546;DHT22;766;51.502;9.752;2022-10-31T16:55:43;15.60;99.90
1546;DHT22;766;51.502;9.752;2022-10-31T16:58:16;15.70;99.90
1546;DHT22;766;51.502;9.752;2022-10-31T17:00:46;15.70;99.90
1546;DHT22;766;51.502;9.752;2022-10-31T17:03:14;15.70;99.90